sensor_id;sensor_type;location;lat;lon;timestamp;pressure;altitude;pressure_sealevel;temperature;humidity
49723;BME280;43484;43.608;1.458;2023-04-24T00:02:18;99192.16;;;12.17;100.00
49723;BME280;43484;43.608;1.458;2023-04-24T00:04:45;99194.78;;;12.24;100.00
49723;BME280;43484;43.608;1.458;2023-04-24T00:07:12;99183.75;;;12.31;100.00
49723;BME280;43484;43.608;1.458;2023-04-24T00:09:39;99191.41;;;12.27;100.00
49723;BME280;43484;43.608;1.458;2023-04-24T00:12:06;99181.94;;;12.24;100.00
49723;BME280;43484;43.608;1.458;2023-04-24T00:14:33;99183.59;;;12.18;100.00
49723;BME280;43484;43.608;1.458;2023-04-24T00:17:01;99175.78;;;12.09;100.00
49723;BME280;43484;43.608;1.458;2023-04-24T00:19:28;99182.66;;;12.11;100.00
49723;BME280;43484;43.608;1.458;2023-04-24T00:21:55;99180.19;;;12.19;100.00
49723;BME280;43484;43.608;1.458;2023-04-24T00:24:22;99180.88;;;12.07;100.00
49723;BME280;43484;43.608;1.458;2023-04-24T00:26:48;99179.22;;;12.11;100.00
49723;BME280;43484;43.608;1.458;2023-04-24T00:29:16;99173.25;;;12.12;100.00
49723;BME280;43484;43.608;1.458;2023-04-24T00:31:42;99174.81;;;12.01;100.00
49723;BME280;43484;43.608;1.458;2023-04-24T00:34:09;99179.31;;;12.17;100.00
49723;BME280;43484;43.608;1.458;2023-04-24T00:36:38;99180.97;;;12.13;100.00
49723;BME280;43484;43.608;1.458;2023-04-24T00:39:04;99178.41;;;12.13;100.00
49723;BME280;43484;43.608;1.458;2023-04-24T00:41:31;99178.28;;;12.06;100.00
49723;BME280;43484;43.608;1.458;2023-04-24T00:43:58;99181.78;;;12.11;100.00
49723;BME280;43484;43.608;1.458;2023-04-24T00:46:24;99177.44;;;12.04;100.00
49723;BME280;43484;43.608;1.458;2023-04-24T00:48:51;99185.19;;;12.08;100.00
49723;BME280;43484;43.608;1.458;2023-04-24T00:51:18;99186.88;;;12.06;100.00
49723;BME280;43484;43.608;1.458;2023-04-24T00:53:45;99185.16;;;12.07;100.00
49723;BME280;43484;43.608;1.458;2023-04-24T00:56:11;99177.50;;;12.10;100.00
49723;BME280;43484;43.608;1.458;2023-04-24T00:58:38;99185.84;;;11.94;100.00
49723;BME280;43484;43.608;1.458;2023-04-24T01:01:05;99173.97;;;12.02;100.00
49723;BME280;43484;43.608;1.458;2023-04-24T01:03:34;99177.44;;;12.04;100.00
49723;BME280;43484;43.608;1.458;2023-04-24T01:06:04;99175.66;;;12.01;100.00
49723;BME280;43484;43.608;1.458;2023-04-24T01:08:31;99165.41;;;12.03;100.00
49723;BME280;43484;43.608;1.458;2023-04-24T01:10:59;99176.53;;;12.00;100.00
49723;BME280;43484;43.608;1.458;2023-04-24T01:13:26;99176.34;;;11.88;100.00
49723;BME280;43484;43.608;1.458;2023-04-24T01:15:53;99167.00;;;11.92;100.00
49723;BME280;43484;43.608;1.458;2023-04-24T01:18:20;99173.78;;;11.88;100.00
49723;BME280;43484;43.608;1.458;2023-04-24T01:20:51;99157.53;;;11.88;100.00
49723;BME280;43484;43.608;1.458;2023-04-24T01:23:19;99166.09;;;11.90;100.00
49723;BME280;43484;43.608;1.458;2023-04-24T01:25:46;99169.56;;;11.92;100.00
49723;BME280;43484;43.608;1.458;2023-04-24T01:28:13;99160.06;;;11.85;100.00
49723;BME280;43484;43.608;1.458;2023-04-24T01:30:40;99163.59;;;11.94;100.00
49723;BME280;43484;43.608;1.458;2023-04-24T01:33:07;99160.00;;;11.79;100.00
49723;BME280;43484;43.608;1.458;2023-04-24T01:35:34;99160.84;;;11.81;100.00
49723;BME280;43484;43.608;1.458;2023-04-24T01:38:03;99166.16;;;11.93;100.00
49723;BME280;43484;43.608;1.458;2023-04-24T01:40:30;99164.28;;;11.81;100.00
49723;BME280;43484;43.608;1.458;2023-04-24T01:42:57;99177.06;;;11.77;100.00
49723;BME280;43484;43.608;1.458;2023-04-24T01:45:25;99180.56;;;11.82;100.00
49723;BME280;43484;43.608;1.458;2023-04-24T01:47:52;99190.88;;;11.86;100.00
49723;BME280;43484;43.608;1.458;2023-04-24T01:50:18;99209.75;;;11.90;100.00
49723;BME280;43484;43.608;1.458;2023-04-24T01:52:45;99211.56;;;11.97;100.00
49723;BME280;43484;43.608;1.458;2023-04-24T01:55:11;99231.94;;;11.88;100.00
49723;BME280;43484;43.608;1.458;2023-04-24T01:57:38;99250.81;;;11.91;100.00
49723;BME280;43484;43.608;1.458;2023-04-24T02:00:06;99255.88;;;11.85;100.00
49723;BME280;43484;43.608;1.458;2023-04-24T02:02:33;99268.56;;;11.78;100.00
49723;BME280;43484;43.608;1.458;2023-04-24T02:05:00;99274.59;;;11.80;100.00
49723;BME280;43484;43.608;1.458;2023-04-24T02:07:27;99276.28;;;11.78;100.00
49723;BME280;43484;43.608;1.458;2023-04-24T02:09:53;99291.66;;;11.78;100.00
49723;BME280;43484;43.608;1.458;2023-04-24T02:12:22;99293.44;;;11.80;100.00
49723;BME280;43484;43.608;1.458;2023-04-24T02:14:48;99288.41;;;11.88;100.00
49723;BME280;43484;43.608;1.458;2023-04-24T02:17:15;99287.50;;;11.86;100.00
49723;BME280;43484;43.608;1.458;2023-04-24T02:19:42;99284.09;;;11.84;100.00
49723;BME280;43484;43.608;1.458;2023-04-24T02:22:09;99283.25;;;11.86;100.00
49723;BME280;43484;43.608;1.458;2023-04-24T02:24:37;99286.59;;;11.81;100.00
49723;BME280;43484;43.608;1.458;2023-04-24T02:27:04;99285.66;;;11.77;100.00
49723;BME280;43484;43.608;1.458;2023-04-24T02:29:31;99286.47;;;11.72;100.00
49723;BME280;43484;43.608;1.458;2023-04-24T02:31:58;99283.91;;;11.73;100.00
49723;BME280;43484;43.608;1.458;2023-04-24T02:34:25;99282.31;;;11.80;100.00
49723;BME280;43484;43.608;1.458;2023-04-24T02:36:51;99275.34;;;11.73;100.00
49723;BME280;43484;43.608;1.458;2023-04-24T02:39:20;99274.63;;;11.81;100.00
49723;BME280;43484;43.608;1.458;2023-04-24T02:41:46;99255.97;;;11.91;100.00
49723;BME280;43484;43.608;1.458;2023-04-24T02:44:13;99254.16;;;11.87;100.00
49723;BME280;43484;43.608;1.458;2023-04-24T02:46:39;99254.22;;;11.89;100.00
49723;BME280;43484;43.608;1.458;2023-04-24T02:49:08;99254.25;;;11.92;100.00
49723;BME280;43484;43.608;1.458;2023-04-24T02:51:34;99233.03;;;12.03;100.00
49723;BME280;43484;43.608;1.458;2023-04-24T02:54:01;99246.47;;;11.87;100.00
49723;BME280;43484;43.608;1.458;2023-04-24T02:56:27;99242.44;;;12.03;100.00
49723;BME280;43484;43.608;1.458;2023-04-24T02:58:54;99251.81;;;12.01;100.00
49723;BME280;43484;43.608;1.458;2023-04-24T03:01:21;99239.88;;;12.03;100.00
49723;BME280;43484;43.608;1.458;2023-04-24T03:03:47;99245.72;;;11.93;100.00
49723;BME280;43484;43.608;1.458;2023-04-24T03:06:14;99252.66;;;12.00;100.00
49723;BME280;43484;43.608;1.458;2023-04-24T03:08:41;99262.16;;;12.04;100.00
49723;BME280;43484;43.608;1.458;2023-04-24T03:11:08;99269.78;;;12.02;100.00
49723;BME280;43484;43.608;1.458;2023-04-24T03:13:34;99268.25;;;12.13;100.00
49723;BME280;43484;43.608;1.458;2023-04-24T03:16:01;99279.25;;;12.05;100.00
49723;BME280;43484;43.608;1.458;2023-04-24T03:18:28;99292.03;;;11.99;100.00
49723;BME280;43484;43.608;1.458;2023-04-24T03:20:54;99278.53;;;12.13;100.00
49723;BME280;43484;43.608;1.458;2023-04-24T03:23:21;99274.34;;;12.20;100.00
49723;BME280;43484;43.608;1.458;2023-04-24T03:25:47;99281.19;;;12.19;100.00
49723;BME280;43484;43.608;1.458;2023-04-24T03:28:14;99286.31;;;12.19;100.00
49723;BME280;43484;43.608;1.458;2023-04-24T03:30:41;99291.44;;;12.18;100.00
49723;BME280;43484;43.608;1.458;2023-04-24T03:33:07;99303.34;;;12.13;100.00
49723;BME280;43484;43.608;1.458;2023-04-24T03:35:34;99299.81;;;12.06;100.00
49723;BME280;43484;43.608;1.458;2023-04-24T03:38:00;99301.50;;;12.04;100.00
49723;BME280;43484;43.608;1.458;2023-04-24T03:40:28;99298.88;;;12.00;100.00
49723;BME280;43484;43.608;1.458;2023-04-24T03:42:56;99307.25;;;11.88;100.00
49723;BME280;43484;43.608;1.458;2023-04-24T03:45:22;99305.47;;;11.86;100.00
49723;BME280;43484;43.608;1.458;2023-04-24T03:47:49;99309.78;;;11.85;100.00
49723;BME280;43484;43.608;1.458;2023-04-24T03:50:15;99309.50;;;11.69;100.00
49723;BME280;43484;43.608;1.458;2023-04-24T03:52:42;99323.06;;;11.63;100.00
49723;BME280;43484;43.608;1.458;2023-04-24T03:55:09;99322.94;;;11.57;100.00
49723;BME280;43484;43.608;1.458;2023-04-24T03:57:40;99312.00;;;11.66;100.00
49723;BME280;43484;43.608;1.458;2023-04-24T04:00:07;99315.34;;;11.63;100.00
49723;BME280;43484;43.608;1.458;2023-04-24T04:02:35;99316.13;;;11.59;100.00
49723;BME280;43484;43.608;1.458;2023-04-24T04:05:02;99298.38;;;11.70;100.00
49723;BME280;43484;43.608;1.458;2023-04-24T04:07:29;99292.50;;;11.75;100.00
49723;BME280;43484;43.608;1.458;2023-04-24T04:09:56;99292.66;;;11.86;100.00
49723;BME280;43484;43.608;1.458;2023-04-24T04:12:22;99291.66;;;11.78;100.00
49723;BME280;43484;43.608;1.458;2023-04-24T04:14:49;99300.88;;;11.64;100.00
49723;BME280;43484;43.608;1.458;2023-04-24T04:17:16;99288.06;;;11.65;100.00
49723;BME280;43484;43.608;1.458;2023-04-24T04:19:42;99301.59;;;11.58;100.00
49723;BME280;43484;43.608;1.458;2023-04-24T04:22:09;99281.34;;;11.73;100.00
49723;BME280;43484;43.608;1.458;2023-04-24T04:24:36;99292.31;;;11.65;100.00
49723;BME280;43484;43.608;1.458;2023-04-24T04:27:04;99300.72;;;11.58;100.00
49723;BME280;43484;43.608;1.458;2023-04-24T04:29:31;99298.34;;;11.67;100.00
49723;BME280;43484;43.608;1.458;2023-04-24T04:31:58;99301.56;;;11.57;100.00
49723;BME280;43484;43.608;1.458;2023-04-24T04:34:25;99299.69;;;11.47;100.00
49723;BME280;43484;43.608;1.458;2023-04-24T04:36:52;99303.03;;;11.43;100.00
49723;BME280;43484;43.608;1.458;2023-04-24T04:39:19;99296.13;;;11.38;100.00
49723;BME280;43484;43.608;1.458;2023-04-24T04:41:46;99298.69;;;11.38;100.00
49723;BME280;43484;43.608;1.458;2023-04-24T04:44:15;99291.81;;;11.37;100.00
49723;BME280;43484;43.608;1.458;2023-04-24T04:46:42;99298.63;;;11.37;100.00
49723;BME280;43484;43.608;1.458;2023-04-24T04:49:08;99304.63;;;11.36;100.00
49723;BME280;43484;43.608;1.458;2023-04-24T04:51:35;99302.94;;;11.36;100.00
49723;BME280;43484;43.608;1.458;2023-04-24T04:54:01;99294.38;;;11.37;100.00
49723;BME280;43484;43.608;1.458;2023-04-24T04:56:28;99298.69;;;11.38;100.00
49723;BME280;43484;43.608;1.458;2023-04-24T04:58:54;99305.56;;;11.41;100.00
49723;BME280;43484;43.608;1.458;2023-04-24T05:01:21;99302.19;;;11.44;100.00
49723;BME280;43484;43.608;1.458;2023-04-24T05:03:49;99290.38;;;11.53;100.00
49723;BME280;43484;43.608;1.458;2023-04-24T05:06:16;99293.78;;;11.52;100.00
49723;BME280;43484;43.608;1.458;2023-04-24T05:08:43;99297.34;;;11.59;100.00
49723;BME280;43484;43.608;1.458;2023-04-24T05:11:10;99317.72;;;11.51;100.00
49723;BME280;43484;43.608;1.458;2023-04-24T05:13:36;99302.31;;;11.51;100.00
49723;BME280;43484;43.608;1.458;2023-04-24T05:16:06;99308.31;;;11.52;100.00
49723;BME280;43484;43.608;1.458;2023-04-24T05:18:34;99311.78;;;11.54;100.00
49723;BME280;43484;43.608;1.458;2023-04-24T05:21:00;99310.06;;;11.54;100.00
49723;BME280;43484;43.608;1.458;2023-04-24T05:23:27;99306.69;;;11.57;100.00
49723;BME280;43484;43.608;1.458;2023-04-24T05:25:54;99308.56;;;11.64;100.00
49723;BME280;43484;43.608;1.458;2023-04-24T05:28:20;99310.19;;;11.62;100.00
49723;BME280;43484;43.608;1.458;2023-04-24T05:30:47;99311.16;;;11.65;100.00
49723;BME280;43484;43.608;1.458;2023-04-24T05:33:13;99317.25;;;11.72;100.00
49723;BME280;43484;43.608;1.458;2023-04-24T05:35:40;99322.38;;;11.72;100.00
49723;BME280;43484;43.608;1.458;2023-04-24T05:38:13;99327.50;;;11.72;100.00
49723;BME280;43484;43.608;1.458;2023-04-24T05:40:39;99318.03;;;11.68;100.00
49723;BME280;43484;43.608;1.458;2023-04-24T05:43:06;99324.13;;;11.76;100.00
49723;BME280;43484;43.608;1.458;2023-04-24T05:45:33;99327.56;;;11.76;100.00
49723;BME280;43484;43.608;1.458;2023-04-24T05:48:02;99322.41;;;11.75;100.00
49723;BME280;43484;43.608;1.458;2023-04-24T05:50:29;99320.75;;;11.77;100.00
49723;BME280;43484;43.608;1.458;2023-04-24T05:52:56;99323.38;;;11.80;100.00
49723;BME280;43484;43.608;1.458;2023-04-24T05:55:25;99335.44;;;11.85;100.00
49723;BME280;43484;43.608;1.458;2023-04-24T05:57:52;99336.31;;;11.87;100.00
49723;BME280;43484;43.608;1.458;2023-04-24T06:00:19;99336.31;;;11.87;100.00
49723;BME280;43484;43.608;1.458;2023-04-24T06:02:46;99338.91;;;11.89;100.00
49723;BME280;43484;43.608;1.458;2023-04-24T06:05:13;99341.50;;;11.90;100.00
49723;BME280;43484;43.608;1.458;2023-04-24T06:07:41;99339.03;;;11.96;100.00
49723;BME280;43484;43.608;1.458;2023-04-24T06:10:08;99350.16;;;11.97;100.00
49723;BME280;43484;43.608;1.458;2023-04-24T06:12:35;99348.50;;;12.00;100.00
49723;BME280;43484;43.608;1.458;2023-04-24T06:15:03;99351.16;;;12.06;100.00
49723;BME280;43484;43.608;1.458;2023-04-24T06:17:30;99354.38;;;11.92;100.00
49723;BME280;43484;43.608;1.458;2023-04-24T06:19:57;99354.44;;;11.96;100.00
49723;BME280;43484;43.608;1.458;2023-04-24T06:22:24;99356.34;;;12.11;100.00
49723;BME280;43484;43.608;1.458;2023-04-24T06:24:50;99358.06;;;12.09;100.00
49723;BME280;43484;43.608;1.458;2023-04-24T06:27:17;99364.91;;;12.08;100.00
49723;BME280;43484;43.608;1.458;2023-04-24T06:29:44;99365.69;;;12.06;100.00
49723;BME280;43484;43.608;1.458;2023-04-24T06:32:10;99374.09;;;11.97;100.00
49723;BME280;43484;43.608;1.458;2023-04-24T06:34:38;99381.00;;;11.98;100.00
49723;BME280;43484;43.608;1.458;2023-04-24T06:37:04;99373.53;;;12.13;100.00
49723;BME280;43484;43.608;1.458;2023-04-24T06:39:31;99389.75;;;12.11;100.00
49723;BME280;43484;43.608;1.458;2023-04-24T06:41:58;99392.22;;;12.05;100.00
49723;BME280;43484;43.608;1.458;2023-04-24T06:44:25;99383.59;;;12.00;100.00
49723;BME280;43484;43.608;1.458;2023-04-24T06:46:51;99391.38;;;12.06;100.00
49723;BME280;43484;43.608;1.458;2023-04-24T06:49:18;99396.41;;;12.00;100.00
49723;BME280;43484;43.608;1.458;2023-04-24T06:51:44;99398.22;;;12.04;100.00
49723;BME280;43484;43.608;1.458;2023-04-24T06:54:11;99398.28;;;12.08;100.00
49723;BME280;43484;43.608;1.458;2023-04-24T06:56:38;99398.22;;;12.04;100.00
49723;BME280;43484;43.608;1.458;2023-04-24T06:59:04;99395.69;;;12.08;100.00
49723;BME280;43484;43.608;1.458;2023-04-24T07:01:31;99390.50;;;12.04;100.00
49723;BME280;43484;43.608;1.458;2023-04-24T07:03:57;99393.94;;;12.07;100.00
49723;BME280;43484;43.608;1.458;2023-04-24T07:06:24;99393.00;;;12.02;100.00
49723;BME280;43484;43.608;1.458;2023-04-24T07:08:51;99400.81;;;12.07;100.00
49723;BME280;43484;43.608;1.458;2023-04-24T07:11:18;99403.47;;;12.13;100.00
49723;BME280;43484;43.608;1.458;2023-04-24T07:13:44;99398.22;;;12.04;100.00
49723;BME280;43484;43.608;1.458;2023-04-24T07:16:11;99383.69;;;12.07;100.00
49723;BME280;43484;43.608;1.458;2023-04-24T07:18:38;99378.44;;;11.98;100.00
49723;BME280;43484;43.608;1.458;2023-04-24T07:21:06;99377.41;;;11.89;100.00
49723;BME280;43484;43.608;1.458;2023-04-24T07:23:33;99377.22;;;11.78;100.00
49723;BME280;43484;43.608;1.458;2023-04-24T07:26:00;99365.41;;;11.88;100.00
49723;BME280;43484;43.608;1.458;2023-04-24T07:28:26;99371.00;;;11.66;100.00
49723;BME280;43484;43.608;1.458;2023-04-24T07:30:53;99369.34;;;11.69;100.00
49723;BME280;43484;43.608;1.458;2023-04-24T07:33:20;99373.78;;;11.78;100.00
49723;BME280;43484;43.608;1.458;2023-04-24T07:35:47;99369.72;;;11.89;100.00
49723;BME280;43484;43.608;1.458;2023-04-24T07:38:14;99376.41;;;11.81;100.00
49723;BME280;43484;43.608;1.458;2023-04-24T07:40:40;99377.56;;;11.98;100.00
49723;BME280;43484;43.608;1.458;2023-04-24T07:43:08;99373.28;;;11.97;100.00
49723;BME280;43484;43.608;1.458;2023-04-24T07:45:34;99379.19;;;11.93;100.00
49723;BME280;43484;43.608;1.458;2023-04-24T07:48:04;99375.53;;;11.79;100.00
49723;BME280;43484;43.608;1.458;2023-04-24T07:50:31;99378.13;;;11.80;100.00
49723;BME280;43484;43.608;1.458;2023-04-24T07:52:57;99367.00;;;11.81;100.00
49723;BME280;43484;43.608;1.458;2023-04-24T07:55:24;99371.09;;;11.70;100.00
49723;BME280;43484;43.608;1.458;2023-04-24T07:57:53;99359.94;;;11.67;100.00
49723;BME280;43484;43.608;1.458;2023-04-24T08:00:20;99352.72;;;11.97;100.00
49723;BME280;43484;43.608;1.458;2023-04-24T08:02:47;99353.31;;;12.36;100.00
49723;BME280;43484;43.608;1.458;2023-04-24T08:05:14;99351.44;;;12.24;100.00
49723;BME280;43484;43.608;1.458;2023-04-24T08:07:41;99340.22;;;12.18;100.00
49723;BME280;43484;43.608;1.458;2023-04-24T08:10:11;99330.75;;;12.14;100.00
49723;BME280;43484;43.608;1.458;2023-04-24T08:12:38;99328.31;;;12.24;100.00
49723;BME280;43484;43.608;1.458;2023-04-24T08:15:05;99326.66;;;12.28;100.00
49723;BME280;43484;43.608;1.458;2023-04-24T08:17:34;99329.25;;;12.29;100.00
49723;BME280;43484;43.608;1.458;2023-04-24T08:20:02;99332.72;;;12.31;100.00
49723;BME280;43484;43.608;1.458;2023-04-24T08:22:30;99342.28;;;12.41;100.00
49723;BME280;43484;43.608;1.458;2023-04-24T08:25:00;99357.50;;;12.29;100.00
49723;BME280;43484;43.608;1.458;2023-04-24T08:27:27;99367.25;;;12.51;100.00
49723;BME280;43484;43.608;1.458;2023-04-24T08:29:54;99395.63;;;12.59;100.00
49723;BME280;43484;43.608;1.458;2023-04-24T08:32:21;99415.41;;;12.66;100.00
49723;BME280;43484;43.608;1.458;2023-04-24T08:34:48;99435.22;;;12.72;100.00
49723;BME280;43484;43.608;1.458;2023-04-24T08:37:15;99457.63;;;12.82;100.00
49723;BME280;43484;43.608;1.458;2023-04-24T08:39:41;99465.50;;;12.92;100.00
49723;BME280;43484;43.608;1.458;2023-04-24T08:42:08;99481.72;;;12.90;100.00
49723;BME280;43484;43.608;1.458;2023-04-24T08:44:36;99517.47;;;12.73;100.00
49723;BME280;43484;43.608;1.458;2023-04-24T08:47:02;99529.16;;;12.54;100.00
49723;BME280;43484;43.608;1.458;2023-04-24T08:49:29;99537.00;;;12.62;100.00
49723;BME280;43484;43.608;1.458;2023-04-24T08:51:56;99553.25;;;12.61;100.00
49723;BME280;43484;43.608;1.458;2023-04-24T08:54:23;99567.97;;;12.71;100.00
49723;BME280;43484;43.608;1.458;2023-04-24T08:56:53;99598.66;;;12.60;100.00
49723;BME280;43484;43.608;1.458;2023-04-24T08:59:21;99593.84;;;12.80;100.00
49723;BME280;43484;43.608;1.458;2023-04-24T09:01:50;99616.34;;;12.95;100.00
49723;BME280;43484;43.608;1.458;2023-04-24T09:04:20;99672.13;;;12.97;100.00
49723;BME280;43484;43.608;1.458;2023-04-24T09:06:49;99681.91;;;13.16;100.00
49723;BME280;43484;43.608;1.458;2023-04-24T09:09:16;99684.53;;;13.18;100.00
49723;BME280;43484;43.608;1.458;2023-04-24T09:11:43;99699.28;;;13.29;100.00
49723;BME280;43484;43.608;1.458;2023-04-24T09:14:10;99716.41;;;13.29;100.00
49723;BME280;43484;43.608;1.458;2023-04-24T09:16:37;99716.41;;;13.27;100.00
49723;BME280;43484;43.608;1.458;2023-04-24T09:19:04;99713.19;;;13.40;100.00
49723;BME280;43484;43.608;1.458;2023-04-24T09:21:35;99740.97;;;13.10;100.00
49723;BME280;43484;43.608;1.458;2023-04-24T09:24:07;99758.63;;;12.94;100.00
49723;BME280;43484;43.608;1.458;2023-04-24T09:26:37;99762.25;;;13.03;100.00
49723;BME280;43484;43.608;1.458;2023-04-24T09:29:04;99759.72;;;13.05;100.00
49723;BME280;43484;43.608;1.458;2023-04-24T09:31:31;99746.56;;;13.36;100.00
49723;BME280;43484;43.608;1.458;2023-04-24T09:34:00;99759.63;;;13.48;100.00
49723;BME280;43484;43.608;1.458;2023-04-24T09:36:31;99773.28;;;13.44;100.00
49723;BME280;43484;43.608;1.458;2023-04-24T09:39:01;99783.00;;;13.61;100.00
49723;BME280;43484;43.608;1.458;2023-04-24T09:41:28;99799.94;;;13.47;100.00
49723;BME280;43484;43.608;1.458;2023-04-24T09:43:55;99795.81;;;13.58;100.00
49723;BME280;43484;43.608;1.458;2023-04-24T09:46:30;99818.97;;;13.57;100.00
49723;BME280;43484;43.608;1.458;2023-04-24T09:49:08;99811.75;;;13.87;100.00
49723;BME280;43484;43.608;1.458;2023-04-24T09:51:37;99833.09;;;13.81;100.00
49723;BME280;43484;43.608;1.458;2023-04-24T09:54:13;99840.88;;;13.83;100.00
49723;BME280;43484;43.608;1.458;2023-04-24T09:56:49;99854.09;;;14.04;100.00
49723;BME280;43484;43.608;1.458;2023-04-24T09:59:18;99865.34;;;14.11;100.00
49723;BME280;43484;43.608;1.458;2023-04-24T10:01:45;99859.34;;;14.12;100.00
49723;BME280;43484;43.608;1.458;2023-04-24T10:04:22;99867.22;;;14.21;100.00
49723;BME280;43484;43.608;1.458;2023-04-24T10:06:53;99886.63;;;13.99;100.00
49723;BME280;43484;43.608;1.458;2023-04-24T10:09:22;99883.88;;;13.90;100.00
49723;BME280;43484;43.608;1.458;2023-04-24T10:11:51;99896.94;;;13.99;100.00
49723;BME280;43484;43.608;1.458;2023-04-24T10:14:21;99891.84;;;14.04;100.00
49723;BME280;43484;43.608;1.458;2023-04-24T10:16:50;99900.44;;;14.04;100.00
49723;BME280;43484;43.608;1.458;2023-04-24T10:19:19;99901.38;;;14.09;100.00
49723;BME280;43484;43.608;1.458;2023-04-24T10:21:46;99896.25;;;14.09;100.00
49723;BME280;43484;43.608;1.458;2023-04-24T10:24:14;99889.69;;;14.28;100.00
49723;BME280;43484;43.608;1.458;2023-04-24T10:26:43;99899.38;;;14.42;100.00
49723;BME280;43484;43.608;1.458;2023-04-24T10:29:12;99889.22;;;14.53;100.00
49723;BME280;43484;43.608;1.458;2023-04-24T10:31:39;99892.81;;;14.64;100.00
49723;BME280;43484;43.608;1.458;2023-04-24T10:34:08;99886.31;;;14.90;100.00
49723;BME280;43484;43.608;1.458;2023-04-24T10:36:37;99884.91;;;15.16;100.00
49723;BME280;43484;43.608;1.458;2023-04-24T10:39:08;99907.78;;;14.90;100.00
49723;BME280;43484;43.608;1.458;2023-04-24T10:41:37;99895.00;;;14.99;100.00
49723;BME280;43484;43.608;1.458;2023-04-24T10:44:08;99903.81;;;15.15;100.00
49723;BME280;43484;43.608;1.458;2023-04-24T10:46:36;99899.44;;;15.09;100.00
49723;BME280;43484;43.608;1.458;2023-04-24T10:49:05;99894.50;;;15.28;100.00
49723;BME280;43484;43.608;1.458;2023-04-24T10:51:51;99892.69;;;15.22;100.00
49723;BME280;43484;43.608;1.458;2023-04-24T10:54:28;99888.44;;;15.26;100.00
49723;BME280;43484;43.608;1.458;2023-04-24T10:59:49;99909.56;;;14.93;100.00
49723;BME280;43484;43.608;1.458;2023-04-24T11:02:16;99907.53;;;14.72;100.00
49723;BME280;43484;43.608;1.458;2023-04-24T11:04:43;99905.84;;;14.73;100.00
49723;BME280;43484;43.608;1.458;2023-04-24T11:07:12;99906.13;;;14.95;100.00
49723;BME280;43484;43.608;1.458;2023-04-24T11:09:41;99910.34;;;14.89;100.00
49723;BME280;43484;43.608;1.458;2023-04-24T11:12:11;99906.28;;;15.06;100.00
49723;BME280;43484;43.608;1.458;2023-04-24T11:15:00;99905.66;;;15.24;100.00
49723;BME280;43484;43.608;1.458;2023-04-24T11:20:04;99905.00;;;14.77;100.00
49723;BME280;43484;43.608;1.458;2023-04-24T11:22:55;99910.44;;;14.95;100.00
49723;BME280;43484;43.608;1.458;2023-04-24T11:25:24;99906.22;;;15.00;100.00
49723;BME280;43484;43.608;1.458;2023-04-24T11:28:03;99900.97;;;14.97;100.00
49723;BME280;43484;43.608;1.458;2023-04-24T11:30:30;99896.84;;;15.06;100.00
49723;BME280;43484;43.608;1.458;2023-04-24T11:33:02;99907.88;;;14.95;100.00
49723;BME280;43484;43.608;1.458;2023-04-24T11:35:29;99902.63;;;14.90;100.00
49723;BME280;43484;43.608;1.458;2023-04-24T11:37:56;99895.81;;;14.95;100.00
49723;BME280;43484;43.608;1.458;2023-04-24T11:40:26;99891.75;;;15.16;100.00
49723;BME280;43484;43.608;1.458;2023-04-24T11:42:54;99891.94;;;15.29;100.00
49723;BME280;43484;43.608;1.458;2023-04-24T11:45:29;99888.63;;;15.39;100.00
49723;BME280;43484;43.608;1.458;2023-04-24T11:47:57;99900.72;;;15.40;100.00
49723;BME280;43484;43.608;1.458;2023-04-24T11:50:26;99898.59;;;15.12;100.00
49723;BME280;43484;43.608;1.458;2023-04-24T11:52:54;99893.63;;;15.27;100.00
49723;BME280;43484;43.608;1.458;2023-04-24T11:57:51;99888.53;;;15.33;100.00
49723;BME280;43484;43.608;1.458;2023-04-24T12:00:21;99887.06;;;15.53;100.00
49723;BME280;43484;43.608;1.458;2023-04-24T12:02:49;99887.94;;;15.54;100.00
49723;BME280;43484;43.608;1.458;2023-04-24T12:05:20;99889.78;;;15.67;100.00
49723;BME280;43484;43.608;1.458;2023-04-24T12:07:48;99891.44;;;15.57;100.00
49723;BME280;43484;43.608;1.458;2023-04-24T12:10:23;99888.94;;;15.69;100.00
49723;BME280;43484;43.608;1.458;2023-04-24T12:12:50;99894.19;;;15.75;100.00
49723;BME280;43484;43.608;1.458;2023-04-24T12:15:19;99889.00;;;15.74;100.00
49723;BME280;43484;43.608;1.458;2023-04-24T12:17:47;99889.91;;;15.77;100.00
49723;BME280;43484;43.608;1.458;2023-04-24T12:20:14;99884.69;;;15.73;100.00
49723;BME280;43484;43.608;1.458;2023-04-24T12:22:46;99887.97;;;15.55;100.00
49723;BME280;43484;43.608;1.458;2023-04-24T12:25:15;99875.94;;;15.57;100.00
49723;BME280;43484;43.608;1.458;2023-04-24T12:27:44;99885.06;;;15.31;100.00
49723;BME280;43484;43.608;1.458;2023-04-24T12:30:15;99873.97;;;15.38;100.00
49723;BME280;43484;43.608;1.458;2023-04-24T12:32:47;99879.44;;;15.64;100.00
49723;BME280;43484;43.608;1.458;2023-04-24T12:35:19;99889.53;;;15.44;100.00
49723;BME280;43484;43.608;1.458;2023-04-24T12:37:46;99893.31;;;15.75;100.00
49723;BME280;43484;43.608;1.458;2023-04-24T12:40:14;99892.41;;;15.71;100.00
49723;BME280;43484;43.608;1.458;2023-04-24T12:42:51;99878.81;;;15.89;100.00
49723;BME280;43484;43.608;1.458;2023-04-24T12:45:18;99868.66;;;16.14;100.00
49723;BME280;43484;43.608;1.458;2023-04-24T12:47:46;99869.56;;;16.21;100.00
49723;BME280;43484;43.608;1.458;2023-04-24T12:50:14;99902.34;;;16.23;100.00
49723;BME280;43484;43.608;1.458;2023-04-24T12:52:42;99876.22;;;15.89;100.00
49723;BME280;43484;43.608;1.458;2023-04-24T12:55:09;99869.28;;;15.82;100.00
49723;BME280;43484;43.608;1.458;2023-04-24T12:57:38;99864.38;;;16.15;100.00
49723;BME280;43484;43.608;1.458;2023-04-24T13:00:07;99866.16;;;16.22;100.00
49723;BME280;43484;43.608;1.458;2023-04-24T13:02:34;99862.34;;;15.79;100.00